sensor_id;sensor_type;location;lat;lon;timestamp;pressure;altitude;pressure_sealevel;temperature;humidity
44103;BME280;29769;42.178;24.742;2024-02-21T00:01:45;100401.16;;;5.62;100.00
44103;BME280;29769;42.178;24.742;2024-02-21T00:04:30;100391.50;;;5.58;100.00
44103;BME280;29769;42.178;24.742;2024-02-21T00:07:15;100402.88;;;5.63;100.00
44103;BME280;29769;42.178;24.742;2024-02-21T00:10:00;100380.06;;;5.50;100.00
44103;BME280;29769;42.178;24.742;2024-02-21T00:12:45;100395.13;;;5.66;100.00
44103;BME280;29769;42.178;24.742;2024-02-21T00:15:30;100390.72;;;5.64;100.00
44103;BME280;29769;42.178;24.742;2024-02-21T00:18:15;100395.03;;;5.62;100.00
44103;BME280;29769;42.178;24.742;2024-02-21T00:21:00;100400.19;;;5.59;100.00
44103;BME280;29769;42.178;24.742;2024-02-21T00:23:46;100396.69;;;5.57;100.00
44103;BME280;29769;42.178;24.742;2024-02-21T00:26:31;100396.66;;;5.55;100.00
44103;BME280;29769;42.178;24.742;2024-02-21T00:29:15;100394.06;;;5.54;100.00
44103;BME280;29769;42.178;24.742;2024-02-21T00:32:00;100394.91;;;5.53;100.00
44103;BME280;29769;42.178;24.742;2024-02-21T00:34:45;100371.22;;;5.42;100.00
44103;BME280;29769;42.178;24.742;2024-02-21T00:37:31;100380.00;;;5.47;100.00
44103;BME280;29769;42.178;24.742;2024-02-21T00:40:16;100375.66;;;5.46;100.00
44103;BME280;29769;42.178;24.742;2024-02-21T00:43:04;100378.41;;;5.54;100.00
44103;BME280;29769;42.178;24.742;2024-02-21T00:45:50;100374.03;;;5.53;100.00
44103;BME280;29769;42.178;24.742;2024-02-21T00:48:35;100372.22;;;5.50;100.00
44103;BME280;29769;42.178;24.742;2024-02-21T00:51:20;100374.00;;;5.51;100.00
44103;BME280;29769;42.178;24.742;2024-02-21T00:54:05;100377.41;;;5.47;100.00
44103;BME280;29769;42.178;24.742;2024-02-21T00:56:51;100367.81;;;5.45;100.00
44103;BME280;29769;42.178;24.742;2024-02-21T00:59:36;100367.75;;;5.40;100.00
44103;BME280;29769;42.178;24.742;2024-02-21T01:02:20;100362.56;;;5.43;100.00
44103;BME280;29769;42.178;24.742;2024-02-21T01:05:06;100364.31;;;5.46;100.00
44103;BME280;29769;42.178;24.742;2024-02-21T01:07:51;100364.34;;;5.47;100.00
44103;BME280;29769;42.178;24.742;2024-02-21T01:10:36;100363.56;;;5.51;100.00
44103;BME280;29769;42.178;24.742;2024-02-21T01:13:21;100362.75;;;5.55;100.00
44103;BME280;29769;42.178;24.742;2024-02-21T01:16:06;100349.75;;;5.58;100.00
44103;BME280;29769;42.178;24.742;2024-02-21T01:18:50;100346.19;;;5.55;100.00
44103;BME280;29769;42.178;24.742;2024-02-21T01:21:36;100346.34;;;5.62;100.00
44103;BME280;29769;42.178;24.742;2024-02-21T01:24:20;100337.56;;;5.57;100.00
44103;BME280;29769;42.178;24.742;2024-02-21T01:27:05;100343.69;;;5.61;100.00
44103;BME280;29769;42.178;24.742;2024-02-21T01:29:50;100348.03;;;5.60;100.00
44103;BME280;29769;42.178;24.742;2024-02-21T01:32:36;100346.34;;;5.62;100.00
44103;BME280;29769;42.178;24.742;2024-02-21T01:35:20;100342.88;;;5.65;100.00
44103;BME280;29769;42.178;24.742;2024-02-21T01:38:05;100344.75;;;5.73;100.00
44103;BME280;29769;42.178;24.742;2024-02-21T01:40:50;100333.50;;;5.77;100.00
44103;BME280;29769;42.178;24.742;2024-02-21T01:43:35;100331.97;;;5.90;100.00
44103;BME280;29769;42.178;24.742;2024-02-21T01:46:21;100336.47;;;6.02;100.00
44103;BME280;29769;42.178;24.742;2024-02-21T01:49:06;100332.03;;;5.96;100.00
44103;BME280;29769;42.178;24.742;2024-02-21T01:51:51;100331.13;;;5.93;100.00
44103;BME280;29769;42.178;24.742;2024-02-21T01:54:36;100327.66;;;5.95;100.00
44103;BME280;29769;42.178;24.742;2024-02-21T01:57:22;100329.66;;;6.11;100.00
44103;BME280;29769;42.178;24.742;2024-02-21T02:00:08;100331.53;;;6.23;100.00
44103;BME280;29769;42.178;24.742;2024-02-21T02:02:55;100333.34;;;6.32;100.00
44103;BME280;29769;42.178;24.742;2024-02-21T02:05:40;100336.09;;;6.41;100.00
44103;BME280;29769;42.178;24.742;2024-02-21T02:08:25;100339.75;;;6.53;100.00
44103;BME280;29769;42.178;24.742;2024-02-21T02:11:10;100329.34;;;6.61;100.00
44103;BME280;29769;42.178;24.742;2024-02-21T02:13:55;100331.13;;;6.65;100.00
44103;BME280;29769;42.178;24.742;2024-02-21T02:16:40;100321.47;;;6.59;100.00
44103;BME280;29769;42.178;24.742;2024-02-21T02:19:26;100322.34;;;6.57;100.00
44103;BME280;29769;42.178;24.742;2024-02-21T02:22:16;100325.03;;;6.63;100.00
44103;BME280;29769;42.178;24.742;2024-02-21T02:25:06;100329.31;;;6.59;100.00
44103;BME280;29769;42.178;24.742;2024-02-21T02:27:51;100327.59;;;6.58;100.00
44103;BME280;29769;42.178;24.742;2024-02-21T02:30:36;100329.22;;;6.50;100.00
44103;BME280;29769;42.178;24.742;2024-02-21T02:33:21;100338.75;;;6.44;100.00
44103;BME280;29769;42.178;24.742;2024-02-21T02:36:06;100336.97;;;6.41;100.00
44103;BME280;29769;42.178;24.742;2024-02-21T02:38:51;100327.31;;;6.34;100.00
44103;BME280;29769;42.178;24.742;2024-02-21T02:41:36;100336.03;;;6.35;100.00
44103;BME280;29769;42.178;24.742;2024-02-21T02:44:21;100328.22;;;6.38;100.00
44103;BME280;29769;42.178;24.742;2024-02-21T02:47:06;100336.91;;;6.35;100.00
44103;BME280;29769;42.178;24.742;2024-02-21T02:49:51;100336.13;;;6.45;100.00
44103;BME280;29769;42.178;24.742;2024-02-21T02:52:36;100331.69;;;6.35;100.00
44103;BME280;29769;42.178;24.742;2024-02-21T02:55:21;100332.41;;;6.23;100.00
44103;BME280;29769;42.178;24.742;2024-02-21T02:58:05;100333.97;;;6.11;100.00
44103;BME280;29769;42.178;24.742;2024-02-21T03:00:50;100340.91;;;6.07;100.00
44103;BME280;29769;42.178;24.742;2024-02-21T03:03:35;100330.44;;;6.06;100.00
44103;BME280;29769;42.178;24.742;2024-02-21T03:06:20;100327.78;;;6.04;100.00
44103;BME280;29769;42.178;24.742;2024-02-21T03:09:05;100333.84;;;6.00;100.00
44103;BME280;29769;42.178;24.742;2024-02-21T03:11:53;100336.44;;;6.00;100.00
44103;BME280;29769;42.178;24.742;2024-02-21T03:14:41;100328.56;;;5.94;100.00
44103;BME280;29769;42.178;24.742;2024-02-21T03:17:26;100334.66;;;5.95;100.00
44103;BME280;29769;42.178;24.742;2024-02-21T03:20:14;100317.22;;;5.95;100.00
44103;BME280;29769;42.178;24.742;2024-02-21T03:23:00;100326.19;;;6.12;100.00
44103;BME280;29769;42.178;24.742;2024-02-21T03:25:45;100306.94;;;6.06;100.00
44103;BME280;29769;42.178;24.742;2024-02-21T03:28:30;100333.19;;;6.16;100.00
44103;BME280;29769;42.178;24.742;2024-02-21T03:31:15;100323.56;;;6.14;100.00
44103;BME280;29769;42.178;24.742;2024-02-21T03:33:59;100321.78;;;6.10;100.00
44103;BME280;29769;42.178;24.742;2024-02-21T03:36:44;100328.84;;;6.18;100.00
44103;BME280;29769;42.178;24.742;2024-02-21T03:39:32;100300.00;;;6.08;100.00
44103;BME280;29769;42.178;24.742;2024-02-21T03:42:17;100320.13;;;6.18;100.00
44103;BME280;29769;42.178;24.742;2024-02-21T03:45:02;100322.78;;;6.22;100.00
44103;BME280;29769;42.178;24.742;2024-02-21T03:47:48;100322.91;;;6.32;100.00
44103;BME280;29769;42.178;24.742;2024-02-21T03:50:33;100330.81;;;6.35;100.00
44103;BME280;29769;42.178;24.742;2024-02-21T03:53:18;100329.91;;;6.33;100.00
44103;BME280;29769;42.178;24.742;2024-02-21T03:56:03;100315.06;;;6.32;100.00
44103;BME280;29769;42.178;24.742;2024-02-21T03:58:48;100320.44;;;6.42;100.00
44103;BME280;29769;42.178;24.742;2024-02-21T04:01:34;100325.72;;;6.50;100.00
44103;BME280;29769;42.178;24.742;2024-02-21T04:04:18;100328.34;;;6.50;100.00
44103;BME280;29769;42.178;24.742;2024-02-21T04:07:03;100330.13;;;6.52;100.00
44103;BME280;29769;42.178;24.742;2024-02-21T04:09:51;100316.00;;;6.37;100.00
44103;BME280;29769;42.178;24.742;2024-02-21T04:12:37;100321.88;;;6.19;100.00
44103;BME280;29769;42.178;24.742;2024-02-21T04:15:22;100328.97;;;6.28;100.00
44103;BME280;29769;42.178;24.742;2024-02-21T04:18:07;100332.63;;;6.42;100.00
44103;BME280;29769;42.178;24.742;2024-02-21T04:20:52;100337.09;;;6.52;100.00
44103;BME280;29769;42.178;24.742;2024-02-21T04:23:37;100334.44;;;6.50;100.00
44103;BME280;29769;42.178;24.742;2024-02-21T04:26:22;100342.97;;;6.33;100.00
44103;BME280;29769;42.178;24.742;2024-02-21T04:29:07;100340.16;;;6.16;100.00
44103;BME280;29769;42.178;24.742;2024-02-21T04:31:52;100342.72;;;6.14;100.00
44103;BME280;29769;42.178;24.742;2024-02-21T04:34:37;100343.59;;;6.12;100.00
44103;BME280;29769;42.178;24.742;2024-02-21T04:37:22;100345.16;;;5.99;100.00
44103;BME280;29769;42.178;24.742;2024-02-21T04:40:07;100340.75;;;5.97;100.00
44103;BME280;29769;42.178;24.742;2024-02-21T04:42:52;100351.22;;;6.00;100.00
44103;BME280;29769;42.178;24.742;2024-02-21T04:45:37;100348.50;;;5.91;100.00
44103;BME280;29769;42.178;24.742;2024-02-21T04:48:22;100353.59;;;5.83;100.00
44103;BME280;29769;42.178;24.742;2024-02-21T04:51:07;100349.88;;;5.66;100.00
44103;BME280;29769;42.178;24.742;2024-02-21T04:53:52;100354.94;;;5.57;100.00
44103;BME280;29769;42.178;24.742;2024-02-21T04:56:37;100368.88;;;5.59;100.00
44103;BME280;29769;42.178;24.742;2024-02-21T04:59:22;100380.94;;;5.49;100.00
44103;BME280;29769;42.178;24.742;2024-02-21T05:02:07;100372.03;;;5.38;100.00
44103;BME280;29769;42.178;24.742;2024-02-21T05:04:52;100370.09;;;5.25;100.00
44103;BME280;29769;42.178;24.742;2024-02-21T05:07:37;100371.81;;;5.24;100.00
44103;BME280;29769;42.178;24.742;2024-02-21T05:10:22;100368.34;;;5.25;100.00
44103;BME280;29769;42.178;24.742;2024-02-21T05:13:07;100366.56;;;5.21;100.00
44103;BME280;29769;42.178;24.742;2024-02-21T05:15:53;100372.66;;;5.22;100.00
44103;BME280;29769;42.178;24.742;2024-02-21T05:18:38;100377.25;;;5.38;100.00
44103;BME280;29769;42.178;24.742;2024-02-21T05:21:23;100357.97;;;5.28;100.00
44103;BME280;29769;42.178;24.742;2024-02-21T05:24:09;100382.25;;;5.24;100.00
44103;BME280;29769;42.178;24.742;2024-02-21T05:26:54;100387.38;;;5.20;100.00
44103;BME280;29769;42.178;24.742;2024-02-21T05:29:39;100381.41;;;5.25;100.00
44103;BME280;29769;42.178;24.742;2024-02-21T05:32:24;100389.41;;;5.37;100.00
44103;BME280;29769;42.178;24.742;2024-02-21T05:35:10;100391.28;;;5.46;100.00
44103;BME280;29769;42.178;24.742;2024-02-21T05:37:55;100391.44;;;5.55;100.00
44103;BME280;29769;42.178;24.742;2024-02-21T05:40:40;100388.09;;;5.64;100.00
44103;BME280;29769;42.178;24.742;2024-02-21T05:43:25;100398.59;;;5.67;100.00
44103;BME280;29769;42.178;24.742;2024-02-21T05:46:10;100396.72;;;5.58;100.00
44103;BME280;29769;42.178;24.742;2024-02-21T05:48:55;100395.72;;;5.50;100.00
44103;BME280;29769;42.178;24.742;2024-02-21T05:51:40;100395.78;;;5.55;100.00
44103;BME280;29769;42.178;24.742;2024-02-21T05:54:25;100404.47;;;5.52;100.00
44103;BME280;29769;42.178;24.742;2024-02-21T05:57:11;100394.13;;;5.60;100.00
44103;BME280;29769;42.178;24.742;2024-02-21T05:59:55;100364.41;;;5.50;100.00
44103;BME280;29769;42.178;24.742;2024-02-21T06:02:41;100403.28;;;5.88;100.00
44103;BME280;29769;42.178;24.742;2024-02-21T06:05:26;100404.47;;;6.08;100.00
44103;BME280;29769;42.178;24.742;2024-02-21T06:08:11;100406.38;;;6.19;100.00
44103;BME280;29769;42.178;24.742;2024-02-21T06:10:56;100413.47;;;6.30;100.00
44103;BME280;29769;42.178;24.742;2024-02-21T06:13:41;100407.50;;;6.41;100.00
44103;BME280;29769;42.178;24.742;2024-02-21T06:16:26;100405.06;;;6.52;100.00
44103;BME280;29769;42.178;24.742;2024-02-21T06:19:11;100411.28;;;6.64;100.00
44103;BME280;29769;42.178;24.742;2024-02-21T06:21:55;100413.13;;;6.70;100.00
44103;BME280;29769;42.178;24.742;2024-02-21T06:24:40;100421.91;;;6.78;100.00
44103;BME280;29769;42.178;24.742;2024-02-21T06:27:25;100428.19;;;6.92;100.00
44103;BME280;29769;42.178;24.742;2024-02-21T06:30:10;100432.75;;;7.08;100.00
44103;BME280;29769;42.178;24.742;2024-02-21T06:32:55;100431.06;;;7.17;100.00
44103;BME280;29769;42.178;24.742;2024-02-21T06:35:40;100432.00;;;7.22;100.00
44103;BME280;29769;42.178;24.742;2024-02-21T06:38:27;100427.78;;;7.39;100.00
44103;BME280;29769;42.178;24.742;2024-02-21T06:41:15;100435.81;;;7.60;100.00
44103;BME280;29769;42.178;24.742;2024-02-21T06:44:01;100436.91;;;7.85;100.00
44103;BME280;29769;42.178;24.742;2024-02-21T06:46:46;100425.72;;;8.10;100.00
44103;BME280;29769;42.178;24.742;2024-02-21T06:49:31;100424.19;;;8.41;100.00
44103;BME280;29769;42.178;24.742;2024-02-21T06:52:17;100419.94;;;8.63;100.00
44103;BME280;29769;42.178;24.742;2024-02-21T06:55:04;100434.91;;;9.05;100.00
44103;BME280;29769;42.178;24.742;2024-02-21T06:57:49;100431.50;;;9.37;100.00
44103;BME280;29769;42.178;24.742;2024-02-21T07:00:33;100435.00;;;9.64;100.00
44103;BME280;29769;42.178;24.742;2024-02-21T07:03:18;100437.63;;;9.88;100.00
44103;BME280;29769;42.178;24.742;2024-02-21T07:06:04;100439.34;;;10.27;100.00
44103;BME280;29769;42.178;24.742;2024-02-21T07:08:49;100433.94;;;10.73;100.00
44103;BME280;29769;42.178;24.742;2024-02-21T07:11:34;100434.44;;;11.41;100.00
44103;BME280;29769;42.178;24.742;2024-02-21T07:14:19;100429.47;;;12.15;100.00
44103;BME280;29769;42.178;24.742;2024-02-21T07:17:04;100439.09;;;12.19;100.00
44103;BME280;29769;42.178;24.742;2024-02-21T07:19:49;100445.75;;;11.54;100.00
44103;BME280;29769;42.178;24.742;2024-02-21T07:22:34;100431.16;;;11.04;100.00
44103;BME280;29769;42.178;24.742;2024-02-21T07:25:18;100436.53;;;10.89;100.00
44103;BME280;29769;42.178;24.742;2024-02-21T07:28:03;100433.00;;;10.86;100.00
44103;BME280;29769;42.178;24.742;2024-02-21T07:30:48;100429.31;;;11.25;100.00
44103;BME280;29769;42.178;24.742;2024-02-21T07:33:33;100441.59;;;11.24;100.00
44103;BME280;29769;42.178;24.742;2024-02-21T07:36:29;100429.84;;;11.75;100.00
44103;BME280;29769;42.178;24.742;2024-02-21T07:39:15;100439.94;;;12.24;100.00
44103;BME280;29769;42.178;24.742;2024-02-21T07:42:00;100436.25;;;12.40;100.00
44103;BME280;29769;42.178;24.742;2024-02-21T07:44:45;100437.88;;;12.50;100.00
44103;BME280;29769;42.178;24.742;2024-02-21T07:47:29;100433.69;;;12.32;100.00
44103;BME280;29769;42.178;24.742;2024-02-21T07:50:14;100440.47;;;12.55;100.00
44103;BME280;29769;42.178;24.742;2024-02-21T07:52:59;100438.03;;;13.08;100.00
44103;BME280;29769;42.178;24.742;2024-02-21T07:55:44;100448.69;;;13.02;100.00
44103;BME280;29769;42.178;24.742;2024-02-21T07:58:29;100440.78;;;12.99;100.00
44103;BME280;29769;42.178;24.742;2024-02-21T08:01:20;100444.75;;;12.63;100.00
44103;BME280;29769;42.178;24.742;2024-02-21T08:04:05;100441.94;;;12.78;100.00
44103;BME280;29769;42.178;24.742;2024-02-21T08:06:53;100443.09;;;12.56;100.00
44103;BME280;29769;42.178;24.742;2024-02-21T08:09:39;100433.03;;;12.09;100.00
44103;BME280;29769;42.178;24.742;2024-02-21T08:12:24;100432.28;;;11.95;100.00
44103;BME280;29769;42.178;24.742;2024-02-21T08:15:09;100435.16;;;11.66;100.00
44103;BME280;29769;42.178;24.742;2024-02-21T08:17:58;100434.34;;;11.58;100.00
44103;BME280;29769;42.178;24.742;2024-02-21T08:20:46;100436.16;;;11.48;100.00
44103;BME280;29769;42.178;24.742;2024-02-21T08:23:32;100447.59;;;11.49;100.00
44103;BME280;29769;42.178;24.742;2024-02-21T08:26:16;100439.59;;;11.59;100.00
44103;BME280;29769;42.178;24.742;2024-02-21T08:29:01;100439.53;;;11.67;100.00
44103;BME280;29769;42.178;24.742;2024-02-21T08:31:46;100454.97;;;12.17;100.00
44103;BME280;29769;42.178;24.742;2024-02-21T08:34:31;100444.13;;;12.44;100.00
44103;BME280;29769;42.178;24.742;2024-02-21T08:37:18;100446.72;;;12.46;100.00
44103;BME280;29769;42.178;24.742;2024-02-21T08:40:03;100451.50;;;12.12;100.00
44103;BME280;29769;42.178;24.742;2024-02-21T08:42:53;100452.50;;;11.99;100.00
44103;BME280;29769;42.178;24.742;2024-02-21T08:45:38;100445.44;;;11.99;100.00
44103;BME280;29769;42.178;24.742;2024-02-21T08:48:23;100452.69;;;11.72;100.00
44103;BME280;29769;42.178;24.742;2024-02-21T08:51:10;100444.00;;;11.56;100.00
44103;BME280;29769;42.178;24.742;2024-02-21T08:53:56;100451.84;;;11.64;100.00
44103;BME280;29769;42.178;24.742;2024-02-21T08:56:41;100455.38;;;11.64;100.00
44103;BME280;29769;42.178;24.742;2024-02-21T08:59:26;100445.94;;;12.39;97.70
44103;BME280;29769;42.178;24.742;2024-02-21T09:02:11;100428.19;;;12.54;95.62
44103;BME280;29769;42.178;24.742;2024-02-21T09:04:56;100449.25;;;12.57;94.07
44103;BME280;29769;42.178;24.742;2024-02-21T09:07:41;100448.63;;;12.35;93.19
44103;BME280;29769;42.178;24.742;2024-02-21T09:10:25;100455.53;;;12.45;94.28
44103;BME280;29769;42.178;24.742;2024-02-21T09:13:11;100439.78;;;12.39;92.58
44103;BME280;29769;42.178;24.742;2024-02-21T09:15:55;100436.56;;;13.52;81.39
44103;BME280;29769;42.178;24.742;2024-02-21T09:18:40;100437.47;;;14.03;79.79
44103;BME280;29769;42.178;24.742;2024-02-21T09:21:25;100433.00;;;14.98;73.20
44103;BME280;29769;42.178;24.742;2024-02-21T09:24:10;100412.03;;;15.65;67.15
44103;BME280;29769;42.178;24.742;2024-02-21T09:26:55;100408.38;;;16.04;64.20
44103;BME280;29769;42.178;24.742;2024-02-21T09:29:40;100421.75;;;16.66;60.90
44103;BME280;29769;42.178;24.742;2024-02-21T09:32:25;100413.44;;;17.07;60.44
44103;BME280;29769;42.178;24.742;2024-02-21T09:35:10;100403.59;;;16.49;57.08
44103;BME280;29769;42.178;24.742;2024-02-21T09:37:57;100420.94;;;17.50;55.50
44103;BME280;29769;42.178;24.742;2024-02-21T09:40:42;100407.94;;;17.95;54.62
44103;BME280;29769;42.178;24.742;2024-02-21T09:43:27;100413.03;;;16.92;54.25
44103;BME280;29769;42.178;24.742;2024-02-21T09:46:16;100406.34;;;18.16;51.73
44103;BME280;29769;42.178;24.742;2024-02-21T09:52:10;100404.31;;;19.19;51.05
44103;BME280;29769;42.178;24.742;2024-02-21T09:54:58;100407.97;;;19.61;49.31
44103;BME280;29769;42.178;24.742;2024-02-21T09:57:44;100400.28;;;19.95;46.87
44103;BME280;29769;42.178;24.742;2024-02-21T10:00:29;100401.94;;;19.34;47.90
44103;BME280;29769;42.178;24.742;2024-02-21T10:03:14;100398.47;;;18.62;50.54
44103;BME280;29769;42.178;24.742;2024-02-21T10:05:59;100386.09;;;19.53;48.52
44103;BME280;29769;42.178;24.742;2024-02-21T10:08:53;100385.97;;;19.76;47.23
44103;BME280;29769;42.178;24.742;2024-02-21T10:11:38;100384.09;;;20.20;45.44
44103;BME280;29769;42.178;24.742;2024-02-21T10:14:24;100385.63;;;20.46;45.77
44103;BME280;29769;42.178;24.742;2024-02-21T10:17:10;100372.34;;;21.02;44.02
44103;BME280;29769;42.178;24.742;2024-02-21T10:20:09;100354.03;;;22.02;40.38
44103;BME280;29769;42.178;24.742;2024-02-21T10:23:04;100346.25;;;22.96;38.25
44103;BME280;29769;42.178;24.742;2024-02-21T10:25:53;100347.09;;;23.13;37.48
44103;BME280;29769;42.178;24.742;2024-02-21T10:28:38;100342.81;;;23.26;36.87
44103;BME280;29769;42.178;24.742;2024-02-21T10:31:27;100321.97;;;25.05;35.06
44103;BME280;29769;42.178;24.742;2024-02-21T10:34:16;100305.91;;;23.75;34.11
44103;BME280;29769;42.178;24.742;2024-02-21T10:37:09;100314.97;;;23.58;35.08
44103;BME280;29769;42.178;24.742;2024-02-21T10:39:54;100316.72;;;23.43;34.44
44103;BME280;29769;42.178;24.742;2024-02-21T10:42:40;100312.44;;;24.15;33.70
44103;BME280;29769;42.178;24.742;2024-02-21T10:45:34;100313.59;;;25.10;31.94
44103;BME280;29769;42.178;24.742;2024-02-21T10:48:25;100302.50;;;24.88;32.61
44103;BME280;29769;42.178;24.742;2024-02-21T10:51:19;100301.50;;;24.18;32.29
44103;BME280;29769;42.178;24.742;2024-02-21T10:57:11;100282.22;;;26.40;29.63
44103;BME280;29769;42.178;24.742;2024-02-21T10:59:58;100274.56;;;27.56;27.96
44103;BME280;29769;42.178;24.742;2024-02-21T11:02:45;100267.56;;;25.27;30.21
44103;BME280;29769;42.178;24.742;2024-02-21T11:05:31;100268.63;;;24.13;31.83
44103;BME280;29769;42.178;24.742;2024-02-21T11:08:17;100271.38;;;24.55;30.64
44103;BME280;29769;42.178;24.742;2024-02-21T11:11:04;100264.47;;;24.23;31.43
44103;BME280;29769;42.178;24.742;2024-02-21T11:13:49;100256.78;;;25.27;30.33
44103;BME280;29769;42.178;24.742;2024-02-21T11:16:39;100259.44;;;26.57;28.51
44103;BME280;29769;42.178;24.742;2024-02-21T11:19:28;100257.81;;;25.65;28.38
44103;BME280;29769;42.178;24.742;2024-02-21T11:22:15;100250.41;;;24.60;30.23
44103;BME280;29769;42.178;24.742;2024-02-21T11:25:07;100258.72;;;24.29;30.83
44103;BME280;29769;42.178;24.742;2024-02-21T11:28:04;100238.56;;;25.18;29.76
44103;BME280;29769;42.178;24.742;2024-02-21T11:30:51;100252.09;;;22.70;32.93
44103;BME280;29769;42.178;24.742;2024-02-21T11:33:39;100248.97;;;24.12;31.14
44103;BME280;29769;42.178;24.742;2024-02-21T11:36:25;100240.19;;;26.86;27.57
44103;BME280;29769;42.178;24.742;2024-02-21T11:39:11;100234.34;;;27.86;26.34
44103;BME280;29769;42.178;24.742;2024-02-21T11:42:03;100234.84;;;26.97;26.71
44103;BME280;29769;42.178;24.742;2024-02-21T11:44:48;100235.53;;;26.27;27.14
44103;BME280;29769;42.178;24.742;2024-02-21T11:47:33;100237.47;;;27.58;26.38
44103;BME280;29769;42.178;24.742;2024-02-21T11:50:18;100225.97;;;25.58;27.33
44103;BME280;29769;42.178;24.742;2024-02-21T11:53:04;100229.91;;;26.04;27.68
44103;BME280;29769;42.178;24.742;2024-02-21T11:55:49;100229.31;;;25.22;28.08
44103;BME280;29769;42.178;24.742;2024-02-21T11:58:34;100224.91;;;25.60;28.49
44103;BME280;29769;42.178;24.742;2024-02-21T12:01:19;100217.28;;;26.05;27.05
44103;BME280;29769;42.178;24.742;2024-02-21T12:04:04;100201.13;;;26.67;27.14
44103;BME280;29769;42.178;24.742;2024-02-21T12:06:49;100198.22;;;27.87;25.80
44103;BME280;29769;42.178;24.742;2024-02-21T12:09:34;100209.69;;;26.61;25.21
44103;BME280;29769;42.178;24.742;2024-02-21T12:12:20;100203.91;;;26.78;25.62
44103;BME280;29769;42.178;24.742;2024-02-21T12:15:06;100207.31;;;27.75;24.66
44103;BME280;29769;42.178;24.742;2024-02-21T12:17:51;100203.25;;;26.12;26.50
44103;BME280;29769;42.178;24.742;2024-02-21T12:20:36;100188.78;;;26.51;26.06
44103;BME280;29769;42.178;24.742;2024-02-21T12:23:21;100194.09;;;26.15;26.86
44103;BME280;29769;42.178;24.742;2024-02-21T12:26:06;100186.13;;;26.75;26.05
44103;BME280;29769;42.178;24.742;2024-02-21T12:28:53;100180.72;;;26.99;25.74
44103;BME280;29769;42.178;24.742;2024-02-21T12:31:39;100172.34;;;26.54;25.22
44103;BME280;29769;42.178;24.742;2024-02-21T12:34:24;100167.88;;;24.20;28.45
44103;BME280;29769;42.178;24.742;2024-02-21T12:37:10;100175.88;;;23.49;29.17
44103;BME280;29769;42.178;24.742;2024-02-21T12:39:57;100169.47;;;24.92;27.61
44103;BME280;29769;42.178;24.742;2024-02-21T12:42:42;100165.75;;;25.97;26.86
44103;BME280;29769;42.178;24.742;2024-02-21T12:45:28;100153.53;;;28.27;24.80
44103;BME280;29769;42.178;24.742;2024-02-21T12:48:13;100153.13;;;29.29;22.93
44103;BME280;29769;42.178;24.742;2024-02-21T12:50:58;100145.84;;;30.22;22.55
44103;BME280;29769;42.178;24.742;2024-02-21T12:53:43;100136.91;;;31.29;21.49
44103;BME280;29769;42.178;24.742;2024-02-21T12:56:28;100134.50;;;30.38;21.61
44103;BME280;29769;42.178;24.742;2024-02-21T12:59:16;100133.84;;;30.65;21.34
44103;BME280;29769;42.178;24.742;2024-02-21T13:02:01;100139.34;;;29.21;22.42
44103;BME280;29769;42.178;24.742;2024-02-21T13:04:46;100128.38;;;27.13;24.56
44103;BME280;29769;42.178;24.742;2024-02-21T13:07:31;100123.75;;;26.91;24.99
44103;BME280;29769;42.178;24.742;2024-02-21T13:10:17;100114.81;;;28.16;24.29
44103;BME280;29769;42.178;24.742;2024-02-21T13:13:03;100120.81;;;28.85;23.38
44103;BME280;29769;42.178;24.742;2024-02-21T13:15:48;100110.38;;;27.24;24.47
44103;BME280;29769;42.178;24.742;2024-02-21T13:18:35;100114.72;;;26.79;25.40
44103;BME280;29769;42.178;24.742;2024-02-21T13:21:20;100119.06;;;27.63;24.80
44103;BME280;29769;42.178;24.742;2024-02-21T13:24:04;100112.22;;;28.14;23.83
44103;BME280;29769;42.178;24.742;2024-02-21T13:26:49;100110.22;;;28.93;23.12
44103;BME280;29769;42.178;24.742;2024-02-21T13:29:34;100104.75;;;29.25;22.35
44103;BME280;29769;42.178;24.742;2024-02-21T13:32:19;100105.97;;;28.79;22.30
44103;BME280;29769;42.178;24.742;2024-02-21T13:35:04;100084.59;;;28.54;22.84
44103;BME280;29769;42.178;24.742;2024-02-21T13:37:49;100097.06;;;29.71;21.85
44103;BME280;29769;42.178;24.742;2024-02-21T13:40:35;100090.63;;;30.33;21.35
44103;BME280;29769;42.178;24.742;2024-02-21T13:43:19;100079.38;;;29.97;21.50
44103;BME280;29769;42.178;24.742;2024-02-21T13:46:05;100092.91;;;29.67;21.56
44103;BME280;29769;42.178;24.742;2024-02-21T13:49:02;100086.19;;;29.41;21.80
44103;BME280;29769;42.178;24.742;2024-02-21T13:51:49;100095.56;;;29.16;22.10
44103;BME280;29769;42.178;24.742;2024-02-21T13:54:34;100083.47;;;29.20;22.31
44103;BME280;29769;42.178;24.742;2024-02-21T13:57:20;100089.09;;;28.33;22.53
44103;BME280;29769;42.178;24.742;2024-02-21T14:00:05;100085.06;;;26.67;24.68
44103;BME280;29769;42.178;24.742;2024-02-21T14:02:59;100087.19;;;25.65;26.29
44103;BME280;29769;42.178;24.742;2024-02-21T14:05:45;100086.53;;;23.75;28.41
44103;BME280;29769;42.178;24.742;2024-02-21T14:08:32;100091.63;;;22.46;30.22
44103;BME280;29769;42.178;24.742;2024-02-21T14:11:19;100075.91;;;21.27;31.79
44103;BME280;29769;42.178;24.742;2024-02-21T14:14:04;100084.78;;;20.76;33.21
44103;BME280;29769;42.178;24.742;2024-02-21T14:16:49;100083.63;;;20.82;33.20
44103;BME280;29769;42.178;24.742;2024-02-21T14:19:34;100088.66;;;21.22;32.65